Time;durP1;ratioP1;P1;durP2;ratioP2;P2;SDS_P1;SDS_P2;PMS_P1;PMS_P2;Temp;Humidity;BMP_temperature;BMP_pressure;BME280_temperature;BME280_humidity;BME280_pressure;Samples;Min_cycle;Max_cycle;Signal;HPM_P1;HPM_P2
2021/03/28 00:02:31;;;;;;;4.93;2.30;;;8.60;33.10;;;;;;4991995;28;39214;-76
2021/03/28 00:05:14;;;;;;;3.67;2.53;;;8.50;33.20;;;;;;5001523;28;36953;-75
2021/03/28 00:07:45;;;;;;;4.13;2.20;;;8.50;33.40;;;;;;4998587;28;36647;-75
2021/03/28 00:10:29;;;;;;;5.50;2.57;;;8.40;33.50;;;;;;4992274;28;37447;-75
2021/03/28 00:13:04;;;;;;;5.63;2.60;;;8.30;33.80;;;;;;4986627;28;39278;-75
2021/03/28 00:15:37;;;;;;;4.50;2.37;;;8.30;33.80;;;;;;4993220;28;39959;-75
2021/03/28 00:18:10;;;;;;;4.80;2.63;;;8.20;33.60;;;;;;4992937;28;38361;-76
2021/03/28 00:20:39;;;;;;;5.17;2.30;;;8.10;33.80;;;;;;4992865;28;38025;-75
2021/03/28 00:23:16;;;;;;;5.97;2.40;;;8.10;33.90;;;;;;4995312;28;39538;-76
2021/03/28 00:25:48;;;;;;;4.40;2.80;;;8.10;34.60;;;;;;4992109;28;38918;-75
2021/03/28 00:28:38;;;;;;;5.23;2.17;;;8.00;34.00;;;;;;4990894;28;38133;-76
2021/03/28 00:31:21;;;;;;;3.80;2.57;;;7.90;34.10;;;;;;5010401;28;36223;-76
2021/03/28 00:34:01;;;;;;;8.83;3.20;;;7.90;34.20;;;;;;4980647;28;39371;-75
2021/03/28 00:36:36;;;;;;;5.40;2.90;;;7.80;34.20;;;;;;5009692;28;37674;-75
2021/03/28 00:39:09;;;;;;;4.10;2.47;;;7.70;34.30;;;;;;4991360;28;36978;-75
2021/03/28 00:41:46;;;;;;;9.87;3.00;;;7.70;34.60;;;;;;4992256;28;37461;-75
2021/03/28 00:44:18;;;;;;;3.73;2.37;;;7.60;34.70;;;;;;4992406;28;39185;-76
2021/03/28 00:46:52;;;;;;;2.43;2.07;;;7.60;34.70;;;;;;4992438;28;39623;-76
2021/03/28 00:49:26;;;;;;;4.90;2.13;;;7.50;34.80;;;;;;4992737;28;38230;-75
2021/03/28 00:51:58;;;;;;;3.87;2.30;;;7.40;34.50;;;;;;4992813;28;37457;-75
2021/03/28 00:54:38;;;;;;;4.83;1.80;;;7.40;34.50;;;;;;5005285;28;39482;-77
2021/03/28 00:57:16;;;;;;;4.50;2.17;;;7.40;35.00;;;;;;4997647;28;38308;-76
2021/03/28 00:59:54;;;;;;;3.93;1.90;;;7.20;35.00;;;;;;4991188;28;36832;-76
2021/03/28 01:02:39;;;;;;;5.63;1.57;;;7.20;35.40;;;;;;4997838;28;37763;-76
2021/03/28 01:05:22;;;;;;;6.10;2.20;;;7.10;35.40;;;;;;4991878;28;38686;-76
2021/03/28 01:07:58;;;;;;;7.57;2.20;;;7.10;35.60;;;;;;5013525;28;37979;-74
2021/03/28 01:11:12;;;;;;;3.93;1.77;;;6.90;35.70;;;;;;4996706;28;37367;-74
2021/03/28 01:14:24;;;;;;;3.90;2.00;;;6.90;35.80;;;;;;5012404;28;36683;-74
2021/03/28 01:17:25;;;;;;;6.43;2.30;;;6.80;35.80;;;;;;5008206;28;39374;-74
2021/03/28 01:20:33;;;;;;;3.00;1.80;;;6.70;36.20;;;;;;5003429;28;40045;-74
2021/03/28 01:23:21;;;;;;;5.63;2.53;;;6.60;36.40;;;;;;5012272;28;38384;-74
2021/03/28 01:26:21;;;;;;;3.90;2.10;;;6.60;36.80;;;;;;4997402;28;37857;-75
2021/03/28 01:28:53;;;;;;;3.07;1.73;;;6.50;36.80;;;;;;5011960;28;39754;-75
2021/03/28 01:31:27;;;;;;;5.00;2.00;;;6.50;37.20;;;;;;5010750;28;38861;-75
2021/03/28 01:34:01;;;;;;;3.17;1.60;;;6.40;37.30;;;;;;4996107;28;38516;-73
2021/03/28 01:36:35;;;;;;;2.87;2.43;;;6.30;37.90;;;;;;4996053;28;35972;-73
2021/03/28 01:39:10;;;;;;;4.13;1.93;;;6.20;38.00;;;;;;5011821;28;39858;-74
2021/03/28 01:41:41;;;;;;;5.00;2.10;;;6.10;38.10;;;;;;4996386;28;38732;-74
2021/03/28 01:44:27;;;;;;;2.43;1.90;;;6.10;38.40;;;;;;5010636;28;37233;-75
2021/03/28 01:47:11;;;;;;;3.70;2.07;;;6.00;38.60;;;;;;4984834;28;36099;-75
2021/03/28 01:49:54;;;;;;;5.37;2.20;;;5.90;38.70;;;;;;4995641;28;38553;-76
2021/03/28 01:52:30;;;;;;;9.40;2.00;;;5.90;39.00;;;;;;4996083;28;38744;-75
2021/03/28 01:55:09;;;;;;;5.53;2.40;;;5.80;39.00;;;;;;5010469;28;36662;-76
2021/03/28 01:57:49;;;;;;;3.70;1.90;;;5.80;39.30;;;;;;5010873;28;37635;-76
2021/03/28 02:00:29;;;;;;;3.90;2.50;;;5.70;39.40;;;;;;4991829;28;38937;-76
2021/03/28 02:03:07;;;;;;;4.83;2.20;;;5.60;39.70;;;;;;5011834;28;37854;-76
2021/03/28 02:05:58;;;;;;;7.20;2.30;;;5.50;40.10;;;;;;4992134;28;38228;-76
2021/03/28 02:08:34;;;;;;;3.90;2.47;;;5.50;40.30;;;;;;5017256;28;37056;-76
2021/03/28 02:11:24;;;;;;;4.03;2.23;;;5.50;40.50;;;;;;5012037;28;39421;-76
2021/03/28 02:14:39;;;;;;;5.57;2.63;;;5.40;40.80;;;;;;5007829;28;37444;-74
2021/03/28 02:17:21;;;;;;;5.93;1.93;;;5.40;41.00;;;;;;4977756;28;38021;-74
2021/03/28 02:19:59;;;;;;;4.83;2.00;;;5.40;41.20;;;;;;5004801;28;37198;-74
2021/03/28 02:22:38;;;;;;;5.00;2.17;;;5.40;41.40;;;;;;4991918;28;39678;-74
2021/03/28 02:25:11;;;;;;;4.10;2.43;;;5.30;41.70;;;;;;4993062;28;39663;-74
2021/03/28 02:27:48;;;;;;;5.60;2.47;;;5.30;41.70;;;;;;5010067;28;37949;-73
2021/03/28 02:30:25;;;;;;;5.73;2.97;;;5.40;41.80;;;;;;5010052;28;38160;-74
2021/03/28 02:33:11;;;;;;;4.20;2.70;;;5.30;41.70;;;;;;5009699;28;39870;-74
2021/03/28 02:35:47;;;;;;;5.37;2.30;;;5.30;41.70;;;;;;5010782;28;37636;-75
2021/03/28 02:38:24;;;;;;;4.70;2.37;;;5.30;41.70;;;;;;5010658;28;37917;-74
2021/03/28 02:41:01;;;;;;;2.77;2.00;;;5.30;41.70;;;;;;5009454;28;38062;-74
2021/03/28 02:43:34;;;;;;;6.57;2.40;;;5.40;41.80;;;;;;5002654;28;39844;-75
2021/03/28 02:46:35;;;;;;;5.30;2.90;;;5.40;41.50;;;;;;5027694;28;37793;-74
2021/03/28 02:49:14;;;;;;;5.23;2.40;;;5.40;41.80;;;;;;5000727;28;37747;-74
2021/03/28 02:51:58;;;;;;;4.57;2.77;;;5.40;41.80;;;;;;5012955;28;37888;-74
2021/03/28 02:54:55;;;;;;;4.77;2.07;;;5.40;41.80;;;;;;5015837;28;39601;-75
2021/03/28 02:57:45;;;;;;;6.30;2.90;;;5.40;41.80;;;;;;5012581;28;39020;-74
2021/03/28 03:00:31;;;;;;;3.20;2.20;;;5.50;41.90;;;;;;4997168;28;37804;-81
2021/03/28 03:03:15;;;;;;;8.67;2.53;;;5.50;42.00;;;;;;5007175;28;37316;-75
2021/03/28 03:06:27;;;;;;;5.10;2.60;;;5.50;41.90;;;;;;5013949;28;39635;-75
2021/03/28 03:09:04;;;;;;;3.53;2.17;;;5.50;41.90;;;;;;4975322;28;38723;-75
2021/03/28 03:11:56;;;;;;;4.30;2.40;;;5.60;42.00;;;;;;5015314;28;36831;-74
2021/03/28 03:14:38;;;;;;;5.17;2.80;;;5.60;42.30;;;;;;5015520;28;37446;-73
2021/03/28 03:17:35;;;;;;;2.30;2.03;;;5.60;42.50;;;;;;5010436;28;41542;-75
2021/03/28 03:20:24;;;;;;;2.73;1.93;;;5.50;42.70;;;;;;5013209;28;39290;-72
2021/03/28 03:23:24;;;;;;;4.10;2.30;;;5.50;43.00;;;;;;5013836;28;38369;-75
2021/03/28 03:26:24;;;;;;;7.83;3.03;;;5.50;42.60;;;;;;5010615;28;37198;-74
2021/03/28 03:29:36;;;;;;;7.10;3.13;;;5.50;42.80;;;;;;5014400;28;40828;-77
2021/03/28 03:32:32;;;;;;;6.23;2.50;;;5.50;42.70;;;;;;5012977;28;40056;-76
2021/03/28 03:35:13;;;;;;;4.33;2.23;;;5.60;42.80;;;;;;5028241;28;37919;-75
2021/03/28 03:38:14;;;;;;;5.57;2.50;;;5.60;42.60;;;;;;5003735;28;35846;-75
2021/03/28 03:41:06;;;;;;;4.67;2.00;;;5.60;42.60;;;;;;4995855;28;39233;-75
2021/03/28 03:43:51;;;;;;;5.30;2.80;;;5.50;42.60;;;;;;5014824;28;37981;-75
2021/03/28 03:46:37;;;;;;;4.77;2.37;;;5.40;42.70;;;;;;5011271;28;38894;-76
2021/03/28 03:49:42;;;;;;;3.30;2.13;;;5.30;43.20;;;;;;4991664;28;37295;-76
2021/03/28 03:52:34;;;;;;;7.03;2.53;;;5.20;43.30;;;;;;5002384;28;39620;-76
2021/03/28 03:55:13;;;;;;;2.63;2.03;;;5.10;43.50;;;;;;4998497;28;37770;-76
2021/03/28 03:57:48;;;;;;;4.17;2.33;;;5.00;43.90;;;;;;4998621;28;36630;-75
2021/03/28 04:00:23;;;;;;;7.63;3.27;;;4.90;44.10;;;;;;5012807;28;37128;-75
2021/03/28 04:02:57;;;;;;;5.93;2.50;;;4.90;44.20;;;;;;5012905;28;39660;-75
2021/03/28 04:05:46;;;;;;;5.13;2.67;;;4.70;44.50;;;;;;4998896;28;38121;-77
2021/03/28 04:08:35;;;;;;;2.93;1.73;;;4.70;44.90;;;;;;5000153;28;37011;-76
2021/03/28 04:11:13;;;;;;;3.80;2.20;;;4.60;45.70;;;;;;5013955;28;37419;-76
2021/03/28 04:14:07;;;;;;;5.37;2.50;;;4.50;45.30;;;;;;5012713;28;41634;-78
2021/03/28 04:16:58;;;;;;;3.17;2.13;;;4.40;45.30;;;;;;5008245;28;37803;-79
2021/03/28 04:19:32;;;;;;;5.20;2.40;;;4.30;45.30;;;;;;5012780;28;38600;-79
2021/03/28 04:22:39;;;;;;;4.67;2.30;;;4.30;45.50;;;;;;5006141;28;37317;-80
2021/03/28 04:25:28;;;;;;;7.47;2.90;;;4.20;45.80;;;;;;4994950;28;40413;-79
2021/03/28 04:28:17;;;;;;;3.77;2.40;;;4.20;46.00;;;;;;4997241;28;39248;-79
2021/03/28 04:31:34;;;;;;;3.63;2.60;;;4.20;46.10;;;;;;5011792;28;38087;-79
2021/03/28 04:34:07;;;;;;;8.67;2.60;;;4.10;46.20;;;;;;5011162;28;36426;-79
2021/03/28 04:36:40;;;;;;;7.87;2.27;;;4.10;46.30;;;;;;5002515;28;40730;-79
2021/03/28 04:39:28;;;;;;;3.90;2.97;;;4.10;46.40;;;;;;5013310;28;39218;-79
2021/03/28 04:42:22;;;;;;;4.67;2.23;;;4.10;46.60;;;;;;5011242;28;37700;-79
2021/03/28 04:45:17;;;;;;;3.60;2.10;;;4.10;46.60;;;;;;5008910;28;38190;-80
2021/03/28 04:48:31;;;;;;;3.93;2.63;;;4.00;46.80;;;;;;5011623;28;40663;-79
2021/03/28 04:51:20;;;;;;;4.17;2.13;;;3.80;47.00;;;;;;4955965;28;38101;-79
2021/03/28 04:54:32;;;;;;;6.60;3.10;;;3.80;47.30;;;;;;5002479;28;37972;-78
2021/03/28 04:57:32;;;;;;;4.50;2.23;;;3.70;47.90;;;;;;4972721;28;36473;-79
2021/03/28 05:00:39;;;;;;;6.50;2.47;;;3.70;48.30;;;;;;5010278;28;39026;-79
2021/03/28 05:03:35;;;;;;;7.43;3.40;;;3.60;48.40;;;;;;5012173;28;36878;-78
2021/03/28 05:06:30;;;;;;;7.63;3.20;;;3.60;48.50;;;;;;5012977;28;38579;-79
2021/03/28 05:09:16;;;;;;;4.53;2.60;;;3.60;48.80;;;;;;4989995;28;37880;-80
2021/03/28 05:12:15;;;;;;;3.50;2.50;;;3.60;49.00;;;;;;4994491;28;38977;-80
2021/03/28 05:15:10;;;;;;;7.20;3.03;;;3.60;48.90;;;;;;5012096;28;40101;-79
2021/03/28 05:17:59;;;;;;;3.67;2.63;;;3.60;48.90;;;;;;5013129;28;37828;-80
2021/03/28 05:20:57;;;;;;;3.50;2.20;;;3.70;48.90;;;;;;4995494;28;36002;-80
2021/03/28 05:23:47;;;;;;;3.40;2.30;;;3.80;48.60;;;;;;4984511;28;40090;-79
2021/03/28 05:26:54;;;;;;;3.53;2.30;;;3.80;48.40;;;;;;5002898;28;39941;-79
2021/03/28 05:30:06;;;;;;;5.20;2.37;;;3.70;48.60;;;;;;5001650;28;38646;-79
2021/03/28 05:33:12;;;;;;;3.17;1.80;;;3.80;48.50;;;;;;4982810;28;37129;-79
2021/03/28 05:36:09;;;;;;;4.50;2.40;;;3.80;48.40;;;;;;4994370;28;39320;-79
2021/03/28 05:38:55;;;;;;;5.77;2.33;;;3.90;48.40;;;;;;4994709;28;37789;-79
2021/03/28 05:42:02;;;;;;;5.10;2.07;;;4.00;47.90;;;;;;5008375;28;38745;-79
2021/03/28 05:45:11;;;;;;;4.90;2.13;;;4.10;47.90;;;;;;5005983;28;36954;-79
2021/03/28 05:48:11;;;;;;;3.60;1.90;;;4.30;47.50;;;;;;4987809;28;38299;-79
2021/03/28 05:50:50;;;;;;;3.43;1.77;;;4.60;47.40;;;;;;5008488;28;38993;-79
2021/03/28 05:53:55;;;;;;;5.50;2.27;;;4.80;46.90;;;;;;5002473;28;39023;-79
2021/03/28 05:57:02;;;;;;;6.57;2.50;;;5.10;46.50;;;;;;5005441;28;35763;-79
2021/03/28 05:59:48;;;;;;;4.10;2.33;;;5.40;46.20;;;;;;5002766;28;39832;-78
2021/03/28 06:02:58;;;;;;;3.10;1.90;;;5.80;45.20;;;;;;5008384;28;39235;-78
2021/03/28 06:05:57;;;;;;;4.80;2.80;;;6.40;44.70;;;;;;4951056;28;36993;-79
2021/03/28 06:09:19;;;;;;;3.57;2.60;;;7.00;42.70;;;;;;5000263;28;35978;-79
2021/03/28 06:12:10;;;;;;;5.03;2.40;;;7.40;41.00;;;;;;5001207;28;40340;-79
2021/03/28 06:14:53;;;;;;;3.93;2.10;;;7.60;40.60;;;;;;5021923;28;38363;-79
2021/03/28 06:17:36;;;;;;;4.47;2.40;;;7.70;40.00;;;;;;5009587;28;38784;-79
2021/03/28 06:20:41;;;;;;;4.00;2.00;;;7.90;39.50;;;;;;5001008;28;37237;-79
2021/03/28 06:23:54;;;;;;;3.23;2.30;;;7.90;39.10;;;;;;4986093;28;38277;-79
2021/03/28 06:27:06;;;;;;;4.70;2.87;;;8.10;39.60;;;;;;4996895;28;38097;-79
2021/03/28 06:29:59;;;;;;;5.03;2.07;;;8.20;39.30;;;;;;4963260;28;39152;-79
2021/03/28 06:33:23;;;;;;;4.37;2.70;;;8.30;38.80;;;;;;5012642;28;36165;-79
2021/03/28 06:36:17;;;;;;;7.73;2.70;;;8.40;38.70;;;;;;4980918;28;40049;-80
2021/03/28 06:39:32;;;;;;;4.10;2.20;;;8.80;38.70;;;;;;4994204;28;37615;-80
2021/03/28 06:42:12;;;;;;;5.37;2.80;;;9.80;37.60;;;;;;4954546;28;37144;-81
2021/03/28 06:45:02;;;;;;;5.17;2.80;;;10.90;34.20;;;;;;4956462;28;35911;-80
2021/03/28 06:48:06;;;;;;;3.60;2.53;;;12.20;32.60;;;;;;4998247;28;39523;-83
2021/03/28 06:51:03;;;;;;;5.57;2.90;;;13.70;30.00;;;;;;4996658;28;38222;-80
2021/03/28 06:54:00;;;;;;;3.50;3.00;;;15.10;28.60;;;;;;4972415;28;37166;-81
2021/03/28 06:57:15;;;;;;;4.00;2.87;;;16.50;27.00;;;;;;5011921;28;37755;-81
2021/03/28 07:00:18;;;;;;;3.67;3.00;;;18.20;25.80;;;;;;5002691;28;39614;-81
2021/03/28 07:03:31;;;;;;;5.03;3.10;;;20.60;23.70;;;;;;5006202;28;39003;-82
2021/03/28 07:06:06;;;;;;;3.50;2.60;;;22.60;21.40;;;;;;4960315;28;36860;-81
2021/03/28 07:09:04;;;;;;;7.87;3.67;;;24.40;20.10;;;;;;5035618;28;36055;-81
2021/03/28 07:11:50;;;;;;;4.57;2.83;;;25.20;19.30;;;;;;5010841;28;39935;-81
2021/03/28 07:14:53;;;;;;;4.77;3.10;;;26.10;18.50;;;;;;5011056;28;39017;-81
2021/03/28 07:18:08;;;;;;;4.87;3.50;;;27.40;17.20;;;;;;5015080;28;38957;-80
2021/03/28 07:21:14;;;;;;;5.50;3.23;;;28.20;16.60;;;;;;4993617;28;36170;-81
2021/03/28 07:24:10;;;;;;;3.90;3.00;;;29.00;15.80;;;;;;4992590;28;39563;-81
2021/03/28 07:26:54;;;;;;;4.80;3.40;;;29.20;15.60;;;;;;4994031;28;39949;-81
2021/03/28 07:29:58;;;;;;;5.13;3.13;;;29.40;14.90;;;;;;5012196;28;38683;-81
2021/03/28 07:33:00;;;;;;;3.70;2.60;;;29.20;14.70;;;;;;5012608;28;37481;-81
2021/03/28 07:36:10;;;;;;;3.80;2.50;;;28.10;15.10;;;;;;4989049;28;38464;-81
2021/03/28 07:39:33;;;;;;;4.80;2.63;;;27.20;15.40;;;;;;4936891;28;37760;-82
2021/03/28 07:42:30;;;;;;;4.90;2.27;;;25.80;15.80;;;;;;4943032;28;37597;-80
2021/03/28 07:45:25;;;;;;;3.10;2.30;;;24.10;17.10;;;;;;5000023;28;36468;-81
2021/03/28 07:48:20;;;;;;;3.87;2.67;;;23.20;17.40;;;;;;5015763;28;38578;-82
2021/03/28 07:51:41;;;;;;;4.10;2.37;;;23.00;18.00;;;;;;5008923;28;38993;-82
2021/03/28 07:54:48;;;;;;;5.20;2.80;;;23.60;17.40;;;;;;5006350;28;38838;-82
2021/03/28 07:57:52;;;;;;;6.60;2.60;;;24.20;17.50;;;;;;5011797;28;37347;-82
2021/03/28 08:00:47;;;;;;;5.93;2.90;;;24.30;17.00;;;;;;5005375;28;39628;-80
2021/03/28 08:03:40;;;;;;;3.57;2.97;;;24.50;16.70;;;;;;4994542;28;38476;-81
2021/03/28 08:06:21;;;;;;;6.57;3.00;;;24.80;16.90;;;;;;5004164;28;36713;-81
2021/03/28 08:09:07;;;;;;;4.77;2.57;;;25.20;16.20;;;;;;5006637;28;37704;-81
2021/03/28 08:11:55;;;;;;;4.23;2.90;;;25.00;16.60;;;;;;4994543;28;38503;-80
2021/03/28 08:14:47;;;;;;;5.70;2.73;;;25.70;16.20;;;;;;5009398;28;39017;-81
2021/03/28 08:17:47;;;;;;;4.43;3.10;;;26.80;16.10;;;;;;4991517;28;38260;-81
2021/03/28 08:20:48;;;;;;;3.20;2.60;;;28.00;15.00;;;;;;5010847;28;38021;-83
2021/03/28 08:23:55;;;;;;;3.33;2.23;;;28.80;14.70;;;;;;5018088;28;39858;-82
2021/03/28 08:26:48;;;;;;;3.30;2.37;;;28.40;14.20;;;;;;5014045;28;38382;-82
2021/03/28 08:29:32;;;;;;;3.90;2.80;;;27.20;14.80;;;;;;5007533;28;38101;-81
2021/03/28 08:32:17;;;;;;;5.40;2.93;;;26.30;15.40;;;;;;5010206;28;37754;-81
2021/03/28 08:35:01;;;;;;;3.83;2.50;;;25.40;15.70;;;;;;4993303;28;39787;-80
2021/03/28 08:38:03;;;;;;;3.83;2.50;;;24.50;16.50;;;;;;5012165;28;37858;-81
2021/03/28 08:41:12;;;;;;;3.40;2.43;;;23.40;17.30;;;;;;5010485;28;39273;-81
2021/03/28 08:44:20;;;;;;;4.47;2.50;;;22.20;18.30;;;;;;5005754;28;38184;-81
2021/03/28 08:47:16;;;;;;;5.50;2.60;;;22.30;19.00;;;;;;4990231;28;38900;-82
2021/03/28 08:49:52;;;;;;;6.23;2.73;;;23.00;19.20;;;;;;5008332;28;39072;-81
2021/03/28 08:52:51;;;;;;;5.20;2.30;;;24.40;17.60;;;;;;4958060;28;37559;-81
2021/03/28 08:55:47;;;;;;;3.63;2.70;;;25.80;16.80;;;;;;4980919;28;36251;-80
2021/03/28 08:58:23;;;;;;;5.93;3.17;;;27.50;15.40;;;;;;5004884;28;41079;-81
2021/03/28 09:00:58;;;;;;;4.67;2.63;;;29.20;14.20;;;;;;5003489;28;39137;-82
2021/03/28 09:03:54;;;;;;;4.10;2.90;;;30.50;13.60;;;;;;4999727;28;38026;-81
2021/03/28 09:06:48;;;;;;;4.33;2.97;;;31.50;13.10;;;;;;5006730;28;37786;-80
2021/03/28 09:09:37;;;;;;;6.80;2.90;;;32.50;13.00;;;;;;4998616;28;39662;-84
2021/03/28 09:12:18;;;;;;;5.00;3.03;;;33.10;11.90;;;;;;4999777;28;38836;-82
2021/03/28 09:15:12;;;;;;;9.90;2.80;;;33.30;11.50;;;;;;4998742;28;37675;-81
2021/03/28 09:17:51;;;;;;;3.80;2.50;;;33.90;11.80;;;;;;5003612;28;37297;-82
2021/03/28 09:20:35;;;;;;;3.00;2.23;;;34.50;11.30;;;;;;5002575;28;39568;-80
2021/03/28 09:23:35;;;;;;;4.57;2.03;;;35.40;11.20;;;;;;4998076;28;39452;-81
2021/03/28 09:26:14;;;;;;;4.87;1.90;;;35.70;10.20;;;;;;5007107;28;36957;-81
2021/03/28 09:28:56;;;;;;;6.47;2.13;;;36.00;9.90;;;;;;5008611;28;38199;-81
2021/03/28 09:31:34;;;;;;;3.20;1.83;;;36.00;9.60;;;;;;5008028;28;40280;-81
2021/03/28 09:34:39;;;;;;;3.40;1.50;;;36.10;9.20;;;;;;5011268;28;38340;-83
2021/03/28 09:37:24;;;;;;;7.37;1.30;;;35.80;9.50;;;;;;5016457;28;38388;-83
2021/03/28 09:40:10;;;;;;;4.37;1.70;;;35.50;8.70;;;;;;5005462;28;37999;-82
2021/03/28 09:42:59;;;;;;;3.33;1.70;;;35.30;9.00;;;;;;5029936;28;39484;-82
2021/03/28 09:46:26;;;;;;;3.63;1.30;;;35.70;8.50;;;;;;5032346;28;38154;-83
2021/03/28 09:49:21;;;;;;;4.50;1.97;;;35.90;8.10;;;;;;5018905;28;38490;-82
2021/03/28 09:52:19;;;;;;;3.10;1.40;;;36.20;8.10;;;;;;5014322;28;36964;-83
2021/03/28 09:55:17;;;;;;;2.17;1.30;;;36.10;7.70;;;;;;5031842;28;39253;-82
2021/03/28 09:58:18;;;;;;;3.30;1.20;;;36.30;7.10;;;;;;5020999;28;37708;-81
2021/03/28 10:01:07;;;;;;;3.53;1.30;;;35.60;7.20;;;;;;5014060;28;39360;-82
2021/03/28 10:03:48;;;;;;;2.50;1.43;;;34.70;8.00;;;;;;4986971;28;36745;-84
2021/03/28 10:06:19;;;;;;;2.70;1.60;;;34.30;7.10;;;;;;5007777;28;40640;-83
2021/03/28 10:08:50;;;;;;;2.60;1.43;;;33.30;7.60;;;;;;5025224;28;37741;-84
2021/03/28 10:11:27;;;;;;;5.27;1.70;;;33.30;8.20;;;;;;5010070;28;36843;-81
2021/03/28 10:14:09;;;;;;;4.20;1.30;;;32.70;7.90;;;;;;4999360;28;38008;-84
2021/03/28 10:16:43;;;;;;;3.63;1.23;;;31.70;8.20;;;;;;5009843;28;39776;-83
2021/03/28 10:19:19;;;;;;;3.23;1.40;;;31.20;8.30;;;;;;5003978;28;39206;-83
2021/03/28 10:22:05;;;;;;;4.30;1.60;;;30.70;8.70;;;;;;5012443;28;39614;-83
2021/03/28 10:24:44;;;;;;;4.77;2.10;;;30.40;9.60;;;;;;5011949;28;37934;-80
2021/03/28 10:27:38;;;;;;;3.57;1.73;;;29.90;9.30;;;;;;5012964;28;41167;-80
2021/03/28 10:30:17;;;;;;;3.97;1.47;;;29.70;9.50;;;;;;5011613;28;37664;-81
2021/03/28 10:33:02;;;;;;;2.40;1.27;;;29.50;9.40;;;;;;5012085;28;38499;-83
2021/03/28 10:35:52;;;;;;;2.40;1.30;;;29.20;9.60;;;;;;5010046;28;36407;-83
2021/03/28 10:38:42;;;;;;;3.77;1.70;;;29.60;9.50;;;;;;4996648;28;39818;-82
2021/03/28 10:41:29;;;;;;;2.23;1.30;;;30.30;9.40;;;;;;5003311;28;39886;-86
2021/03/28 10:44:37;;;;;;;3.63;1.50;;;31.00;9.70;;;;;;5004261;28;37863;-87
2021/03/28 10:47:49;;;;;;;2.80;1.43;;;31.60;8.70;;;;;;4992796;28;37848;-87
2021/03/28 10:50:52;;;;;;;2.40;1.20;;;32.00;8.10;;;;;;4943223;28;38823;-87
2021/03/28 10:53:55;;;;;;;2.60;1.23;;;31.00;7.70;;;;;;4968146;28;38886;-87
2021/03/28 10:56:47;;;;;;;2.20;1.03;;;30.60;8.60;;;;;;4981008;28;38645;-88
2021/03/28 11:00:00;;;;;;;3.57;1.33;;;30.20;8.80;;;;;;4975791;28;37286;-87
2021/03/28 11:03:05;;;;;;;3.30;1.50;;;29.90;8.90;;;;;;4992076;28;39520;-87
2021/03/28 11:06:01;;;;;;;2.80;1.40;;;29.50;9.40;;;;;;5004608;28;38925;-87
2021/03/28 11:09:04;;;;;;;3.03;1.40;;;28.80;9.60;;;;;;5014975;28;38223;-86
2021/03/28 11:11:56;;;;;;;2.63;1.40;;;28.20;10.20;;;;;;5013067;28;37060;-87
2021/03/28 11:14:40;;;;;;;2.63;1.30;;;27.20;10.40;;;;;;5012620;28;40528;-86
2021/03/28 11:17:38;;;;;;;3.93;1.23;;;26.80;11.30;;;;;;5017665;28;39271;-87
2021/03/28 11:20:43;;;;;;;3.90;1.53;;;26.00;11.20;;;;;;5016430;28;38939;-87
2021/03/28 11:23:38;;;;;;;1.93;0.90;;;25.00;12.20;;;;;;5009596;28;37502;-88
2021/03/28 11:26:29;;;;;;;3.10;1.20;;;24.30;12.50;;;;;;5016594;28;39704;-88
2021/03/28 11:29:28;;;;;;;3.17;1.37;;;23.80;13.00;;;;;;5013811;28;38910;-87
2021/03/28 11:32:02;;;;;;;2.33;1.43;;;23.20;13.30;;;;;;5011397;28;38410;-88
2021/03/28 11:34:35;;;;;;;1.90;1.00;;;22.40;13.60;;;;;;5030843;28;37803;-88
2021/03/28 11:37:42;;;;;;;3.37;1.47;;;21.90;14.90;;;;;;5027961;28;40162;-88
2021/03/28 11:40:34;;;;;;;4.90;1.73;;;21.30;14.70;;;;;;5021922;28;40426;-87
2021/03/28 11:43:35;;;;;;;6.30;1.20;;;20.70;15.00;;;;;;5030816;28;38388;-87
2021/03/28 11:46:22;;;;;;;3.53;1.40;;;20.30;15.80;;;;;;5023814;28;37879;-87
2021/03/28 11:49:07;;;;;;;3.10;1.50;;;20.10;16.00;;;;;;5021185;28;40018;-86
2021/03/28 11:52:01;;;;;;;3.03;1.23;;;19.70;15.60;;;;;;5036954;28;37899;-87
2021/03/28 11:54:29;;;;;;;7.07;1.80;;;19.40;16.10;;;;;;5010606;28;36849;-88
2021/03/28 11:57:14;;;;;;;4.80;1.67;;;19.10;17.50;;;;;;5013072;28;37358;-88
2021/03/28 11:59:45;;;;;;;3.70;1.50;;;18.80;17.30;;;;;;5011268;28;41420;-88
2021/03/28 12:02:24;;;;;;;2.73;1.30;;;18.40;17.70;;;;;;5009249;28;38979;-87
2021/03/28 12:05:11;;;;;;;2.97;1.40;;;18.10;18.10;;;;;;5011618;28;36825;-88
2021/03/28 12:07:42;;;;;;;3.23;1.60;;;17.80;17.90;;;;;;5013461;28;37306;-87
2021/03/28 12:10:17;;;;;;;5.70;1.60;;;17.70;18.10;;;;;;5011885;28;39425;-87
2021/03/28 12:13:22;;;;;;;3.77;1.73;;;17.70;18.20;;;;;;5011387;28;39100;-87
2021/03/28 12:15:58;;;;;;;2.20;1.03;;;17.70;18.50;;;;;;5002619;28;37953;-88
2021/03/28 12:18:49;;;;;;;4.07;1.50;;;17.80;18.70;;;;;;5012676;28;36734;-86
2021/03/28 12:21:50;;;;;;;4.40;1.33;;;17.80;18.70;;;;;;5012022;28;38569;-87
2021/03/28 12:24:26;;;;;;;3.73;1.60;;;17.70;18.70;;;;;;5011056;28;39337;-87
2021/03/28 12:27:03;;;;;;;2.70;1.23;;;17.80;18.30;;;;;;5045496;28;37595;-86
2021/03/28 12:29:47;;;;;;;2.70;1.50;;;17.70;18.10;;;;;;5011042;28;38045;-86
2021/03/28 12:32:50;;;;;;;4.87;1.70;;;17.70;17.90;;;;;;5011723;28;38643;-86
2021/03/28 12:35:29;;;;;;;3.00;1.50;;;17.50;18.50;;;;;;5037168;28;37621;-86
2021/03/28 12:37:57;;;;;;;6.60;1.87;;;17.60;19.20;;;;;;5010625;28;37984;-87
2021/03/28 12:40:34;;;;;;;3.03;1.40;;;17.60;19.20;;;;;;5008743;28;38315;-87
2021/03/28 12:43:04;;;;;;;2.90;1.40;;;17.60;19.00;;;;;;5007522;28;39480;-86
2021/03/28 12:45:36;;;;;;;3.10;1.33;;;17.40;19.30;;;;;;5016509;28;38020;-87
2021/03/28 12:48:21;;;;;;;3.03;1.50;;;17.30;18.60;;;;;;5001328;28;39034;-86
2021/03/28 12:50:49;;;;;;;3.20;1.60;;;17.40;19.10;;;;;;4965165;28;36919;-87
2021/03/28 12:53:22;;;;;;;3.67;1.50;;;17.40;19.30;;;;;;5023771;28;40755;-87
2021/03/28 12:55:53;;;;;;;3.53;2.00;;;17.40;19.60;;;;;;5010404;28;39646;-87
2021/03/28 12:58:26;;;;;;;3.03;1.40;;;17.40;19.40;;;;;;5012556;28;37961;-88
2021/03/28 13:01:02;;;;;;;2.43;1.23;;;17.30;19.70;;;;;;5008484;28;36573;-87
2021/03/28 13:03:38;;;;;;;3.80;1.40;;;17.00;19.40;;;;;;5009443;28;39886;-86
2021/03/28 13:06:20;;;;;;;6.60;1.60;;;17.00;19.80;;;;;;5010241;28;39964;-86
2021/03/28 13:08:51;;;;;;;2.10;1.10;;;17.00;20.20;;;;;;5018860;28;36754;-87
2021/03/28 13:11:46;;;;;;;3.50;1.37;;;17.00;19.50;;;;;;5010203;28;36686;-86
2021/03/28 13:14:36;;;;;;;5.17;1.70;;;16.90;19.30;;;;;;5007115;28;40171;-87
2021/03/28 13:17:18;;;;;;;2.97;1.20;;;17.00;19.90;;;;;;5042777;28;37829;-87
2021/03/28 13:19:47;;;;;;;2.57;1.10;;;17.00;19.30;;;;;;5008490;28;38150;-87
2021/03/28 13:22:33;;;;;;;2.33;1.30;;;16.90;20.10;;;;;;5014276;28;35941;-86
2021/03/28 13:25:27;;;;;;;3.17;1.40;;;16.90;18.80;;;;;;5022756;28;39372;-88
2021/03/28 13:28:23;;;;;;;4.37;1.57;;;17.00;19.50;;;;;;4993052;28;37531;-87
2021/03/28 13:30:52;;;;;;;5.47;1.30;;;17.00;19.40;;;;;;5007789;28;37759;-87
2021/03/28 13:33:38;;;;;;;2.60;1.00;;;17.10;19.00;;;;;;5010672;28;38734;-87
2021/03/28 13:36:20;;;;;;;4.13;1.63;;;17.10;19.20;;;;;;5007310;28;39587;-87
2021/03/28 13:39:12;;;;;;;4.07;1.30;;;17.20;18.70;;;;;;5006786;28;39652;-86
2021/03/28 13:41:41;;;;;;;2.43;1.20;;;17.30;18.30;;;;;;5006487;28;37857;-85
2021/03/28 13:44:22;;;;;;;4.53;1.20;;;17.30;18.50;;;;;;5033752;28;37210;-86
2021/03/28 13:46:52;;;;;;;2.20;1.17;;;17.20;18.40;;;;;;5029264;28;39347;-85
2021/03/28 13:49:40;;;;;;;2.97;1.40;;;17.30;18.30;;;;;;5013029;28;39007;-86
2021/03/28 13:52:20;;;;;;;3.00;1.17;;;17.20;17.70;;;;;;5028634;28;38231;-84
2021/03/28 13:55:05;;;;;;;4.07;1.37;;;17.30;18.00;;;;;;5031255;28;37199;-87
2021/03/28 13:57:34;;;;;;;1.70;1.17;;;17.30;17.60;;;;;;5016054;28;38646;-86
2021/03/28 14:00:31;;;;;;;2.80;1.40;;;17.30;17.70;;;;;;5033070;28;38812;-86
2021/03/28 14:03:00;;;;;;;1.60;1.20;;;17.30;17.70;;;;;;5014850;28;37504;-86
2021/03/28 14:05:40;;;;;;;3.87;1.23;;;17.30;17.30;;;;;;5013934;28;36059;-87
2021/03/28 14:08:15;;;;;;;2.07;1.10;;;17.40;17.60;;;;;;5029396;28;39621;-84
2021/03/28 14:10:49;;;;;;;3.43;1.10;;;17.40;17.70;;;;;;5030683;28;38126;-85
2021/03/28 14:13:21;;;;;;;3.67;1.10;;;17.40;17.70;;;;;;5031952;28;37899;-86
2021/03/28 14:15:54;;;;;;;2.93;1.30;;;17.40;17.70;;;;;;5037822;28;36235;-86
2021/03/28 14:18:31;;;;;;;3.40;1.57;;;17.40;18.10;;;;;;5015768;28;39311;-86
2021/03/28 14:21:22;;;;;;;3.40;1.10;;;17.40;17.60;;;;;;5038020;28;37545;-85
2021/03/28 14:23:55;;;;;;;1.87;1.17;;;17.40;17.60;;;;;;5023254;28;37637;-86
2021/03/28 14:26:32;;;;;;;2.70;1.27;;;17.40;17.20;;;;;;5002989;28;35962;-86
2021/03/28 14:28:59;;;;;;;3.00;1.13;;;17.40;17.00;;;;;;5042882;28;38163;-84
2021/03/28 14:31:35;;;;;;;4.63;1.00;;;17.30;16.20;;;;;;5035359;28;39104;-84
2021/03/28 14:34:36;;;;;;;3.17;1.30;;;17.30;16.00;;;;;;5029236;28;37959;-84
2021/03/28 14:37:36;;;;;;;4.07;1.40;;;17.30;16.40;;;;;;5034703;28;39250;-86
2021/03/28 14:40:45;;;;;;;3.37;1.30;;;17.40;17.50;;;;;;5027773;28;39944;-86
2021/03/28 14:43:37;;;;;;;4.57;1.33;;;17.40;17.10;;;;;;5031754;28;39714;-85
2021/03/28 14:46:27;;;;;;;4.80;1.30;;;17.40;17.00;;;;;;5017726;28;36748;-85